Time;durP1;ratioP1;P1;durP2;ratioP2;P2;SDS_P1;SDS_P2;PMS_P1;PMS_P2;Temp;Humidity;BMP_temperature;BMP_pressure;BME280_temperature;BME280_humidity;BME280_pressure;Samples;Min_cycle;Max_cycle;Signal;HPM_P1;HPM_P2
2021/07/18 00:01:32;;;;;;;15.43;8.77;;;18.70;99.90;;;;;;5073093;28;20021;-76
2021/07/18 00:03:57;;;;;;;13.20;8.73;;;18.70;99.90;;;;;;5071151;28;20184;-77
2021/07/18 00:06:23;;;;;;;14.45;8.88;;;18.70;99.90;;;;;;5071133;28;20389;-76
2021/07/18 00:08:49;;;;;;;18.75;9.40;;;18.70;99.90;;;;;;5071236;28;20024;-76
2021/07/18 00:11:14;;;;;;;14.10;9.00;;;18.70;99.90;;;;;;5071397;28;20083;-76
2021/07/18 00:13:40;;;;;;;13.75;8.23;;;18.70;99.90;;;;;;5071523;28;20028;-77
2021/07/18 00:16:06;;;;;;;14.70;7.68;;;18.70;99.90;;;;;;5071499;28;20386;-77
2021/07/18 00:18:32;;;;;;;14.60;7.63;;;18.60;99.90;;;;;;5086450;28;20036;-77
2021/07/18 00:20:57;;;;;;;17.08;8.73;;;18.60;99.90;;;;;;5071036;28;20028;-76
2021/07/18 00:23:23;;;;;;;13.00;7.90;;;18.60;99.90;;;;;;5076458;28;20036;-77
2021/07/18 00:25:49;;;;;;;14.80;7.80;;;18.60;99.90;;;;;;5091318;28;20027;-76
2021/07/18 00:28:14;;;;;;;15.07;7.85;;;18.60;99.90;;;;;;5090850;28;20035;-77
2021/07/18 00:30:40;;;;;;;14.48;8.20;;;18.60;99.90;;;;;;5091276;28;20020;-77
2021/07/18 00:33:06;;;;;;;15.25;8.48;;;18.50;99.90;;;;;;5089882;28;20036;-76
2021/07/18 00:38:00;;;;;;;12.15;7.10;;;18.50;99.90;;;;;;5039759;28;20048;-77
2021/07/18 00:40:26;;;;;;;13.00;7.45;;;18.50;99.90;;;;;;5047914;28;20073;-76
2021/07/18 00:42:52;;;;;;;13.25;7.70;;;18.50;99.90;;;;;;5050772;28;20013;-76
2021/07/18 00:45:17;;;;;;;11.52;7.22;;;18.40;99.90;;;;;;5050961;28;20347;-76
2021/07/18 00:47:43;;;;;;;14.73;7.93;;;18.40;99.90;;;;;;5029521;28;20405;-77
2021/07/18 00:50:14;;;;;;;12.60;7.03;;;18.40;99.90;;;;;;5007078;28;20573;-76
2021/07/18 00:52:40;;;;;;;12.48;6.82;;;18.30;99.90;;;;;;5030355;28;20017;-77
2021/07/18 00:55:08;;;;;;;11.10;6.82;;;18.30;99.90;;;;;;5031022;28;20056;-76
2021/07/18 00:57:35;;;;;;;12.57;6.82;;;18.20;99.90;;;;;;5030773;28;20101;-75
2021/07/18 01:00:06;;;;;;;10.90;6.40;;;18.20;99.90;;;;;;5030394;28;20106;-76
2021/07/18 01:02:32;;;;;;;12.48;6.90;;;18.20;99.90;;;;;;5030858;28;20190;-76
2021/07/18 01:04:59;;;;;;;12.82;7.28;;;18.20;99.90;;;;;;5031022;28;20445;-76
2021/07/18 01:07:25;;;;;;;12.60;7.45;;;18.20;99.90;;;;;;5030363;28;20037;-76
2021/07/18 01:09:51;;;;;;;11.98;6.93;;;18.20;99.90;;;;;;5030494;28;20061;-76
2021/07/18 01:12:16;;;;;;;11.70;6.50;;;18.10;99.90;;;;;;5030922;28;20107;-77
2021/07/18 01:14:44;;;;;;;12.40;6.90;;;18.10;99.90;;;;;;5030291;28;20048;-76
2021/07/18 01:17:10;;;;;;;14.32;6.93;;;18.10;99.90;;;;;;5011036;28;20061;-77
2021/07/18 01:19:39;;;;;;;16.13;6.95;;;18.00;99.90;;;;;;5013458;28;20387;-77
2021/07/18 01:22:05;;;;;;;11.98;6.00;;;18.00;99.90;;;;;;4997482;28;20025;-76
2021/07/18 01:24:31;;;;;;;10.55;5.85;;;17.90;99.90;;;;;;5021167;28;20083;-76
2021/07/18 01:26:58;;;;;;;10.32;6.00;;;18.00;99.90;;;;;;5034606;28;20112;-76
2021/07/18 01:29:25;;;;;;;9.60;5.35;;;18.00;99.90;;;;;;5034544;28;20080;-77
2021/07/18 01:31:51;;;;;;;9.48;5.20;;;17.90;99.90;;;;;;5034612;28;20116;-76
2021/07/18 01:34:17;;;;;;;11.43;5.50;;;17.90;99.90;;;;;;5034294;28;20071;-77
2021/07/18 01:36:43;;;;;;;10.88;4.93;;;17.90;99.90;;;;;;5034334;28;20034;-76
2021/07/18 01:39:11;;;;;;;13.40;5.22;;;17.90;99.90;;;;;;5034316;28;20088;-77
2021/07/18 01:41:36;;;;;;;7.90;4.95;;;17.90;99.90;;;;;;5034128;28;20029;-77
2021/07/18 01:44:03;;;;;;;8.85;4.93;;;17.80;99.90;;;;;;5034357;28;20036;-76
2021/07/18 01:46:30;;;;;;;7.97;5.15;;;17.80;99.90;;;;;;5034379;28;20018;-77
2021/07/18 01:48:57;;;;;;;12.20;5.50;;;17.80;99.90;;;;;;5034029;28;20010;-76
2021/07/18 01:51:24;;;;;;;10.82;5.53;;;17.70;99.90;;;;;;5034082;28;20441;-75
2021/07/18 01:53:51;;;;;;;9.43;5.43;;;17.70;99.90;;;;;;5034361;28;20028;-76
2021/07/18 01:56:18;;;;;;;9.93;5.10;;;17.60;99.90;;;;;;5033950;28;20032;-76
2021/07/18 01:58:46;;;;;;;11.02;4.88;;;17.50;99.90;;;;;;5007738;28;20054;-76
2021/07/18 02:01:12;;;;;;;9.18;4.93;;;17.50;99.90;;;;;;5032673;28;20022;-77
2021/07/18 02:03:38;;;;;;;9.77;4.97;;;17.50;99.90;;;;;;5032847;28;20079;-76
2021/07/18 02:06:04;;;;;;;6.80;4.45;;;17.50;99.90;;;;;;5032717;28;20072;-76
2021/07/18 02:08:29;;;;;;;7.10;4.28;;;17.50;99.90;;;;;;5033089;28;20033;-76
2021/07/18 02:10:55;;;;;;;10.77;4.72;;;17.40;99.90;;;;;;5033744;28;20037;-76
2021/07/18 02:13:21;;;;;;;7.45;4.93;;;17.40;99.90;;;;;;5034028;28;20036;-77
2021/07/18 02:15:46;;;;;;;7.20;4.35;;;17.30;99.90;;;;;;5033347;28;20038;-76
2021/07/18 02:18:12;;;;;;;8.68;4.35;;;17.30;99.90;;;;;;5033540;28;20039;-76
2021/07/18 02:20:38;;;;;;;10.75;4.70;;;17.20;99.90;;;;;;5033642;28;20025;-76
2021/07/18 02:23:04;;;;;;;14.48;4.32;;;17.30;99.90;;;;;;5033699;28;20444;-77
2021/07/18 02:25:30;;;;;;;8.00;3.85;;;17.30;99.90;;;;;;5015283;28;20478;-76
2021/07/18 02:27:56;;;;;;;8.60;3.92;;;17.20;99.90;;;;;;5033346;28;20055;-77
2021/07/18 02:30:23;;;;;;;9.25;4.00;;;17.20;99.90;;;;;;5033081;28;20430;-77
2021/07/18 02:32:50;;;;;;;10.35;4.07;;;17.20;99.90;;;;;;5033394;28;20126;-76
2021/07/18 02:35:16;;;;;;;10.00;4.28;;;17.20;99.90;;;;;;5032912;28;20748;-77
2021/07/18 02:37:43;;;;;;;11.30;4.38;;;17.10;99.90;;;;;;5015006;28;20176;-76
2021/07/18 02:40:11;;;;;;;11.15;4.18;;;17.10;99.90;;;;;;5033452;28;20113;-76
2021/07/18 02:42:39;;;;;;;7.78;3.75;;;17.10;99.90;;;;;;5030692;28;20359;-76
2021/07/18 02:45:10;;;;;;;7.80;4.00;;;17.00;99.90;;;;;;5013094;28;20437;-76
2021/07/18 02:47:37;;;;;;;7.57;4.13;;;17.00;99.90;;;;;;5023431;28;20035;-76
2021/07/18 02:50:05;;;;;;;7.30;3.72;;;17.00;99.90;;;;;;5030985;28;20125;-76
2021/07/18 02:52:31;;;;;;;8.10;3.53;;;17.00;99.90;;;;;;5032413;28;20033;-77
2021/07/18 02:54:56;;;;;;;7.97;3.63;;;16.90;99.90;;;;;;5033226;28;20024;-77
2021/07/18 02:57:22;;;;;;;8.38;3.80;;;17.00;99.90;;;;;;5034920;28;20026;-77
2021/07/18 02:59:48;;;;;;;7.70;4.30;;;16.90;99.90;;;;;;5034500;28;20478;-77
2021/07/18 03:02:13;;;;;;;7.57;3.55;;;16.90;99.90;;;;;;5034732;28;20025;-77
2021/07/18 03:04:39;;;;;;;9.27;3.90;;;16.90;99.90;;;;;;5034630;28;20485;-76
2021/07/18 03:07:05;;;;;;;8.38;3.72;;;16.90;99.90;;;;;;5017218;28;20040;-77
2021/07/18 03:09:30;;;;;;;7.00;3.35;;;16.90;99.90;;;;;;5016674;28;20034;-77
2021/07/18 03:11:56;;;;;;;7.63;3.13;;;16.80;99.90;;;;;;5034427;28;20444;-77
2021/07/18 03:14:21;;;;;;;10.35;3.63;;;16.80;99.90;;;;;;5035314;28;20032;-77
2021/07/18 03:16:48;;;;;;;7.70;3.10;;;16.80;99.90;;;;;;5017186;28;20029;-76
2021/07/18 03:19:14;;;;;;;6.47;3.83;;;16.80;99.90;;;;;;5034531;28;20100;-76
2021/07/18 03:21:40;;;;;;;8.82;3.92;;;16.80;99.90;;;;;;5034283;28;20042;-77
2021/07/18 03:24:06;;;;;;;6.30;3.28;;;16.80;99.90;;;;;;5015619;28;20029;-76
2021/07/18 03:26:32;;;;;;;10.80;3.38;;;16.70;99.90;;;;;;5033145;28;20041;-77
2021/07/18 03:28:57;;;;;;;10.82;3.97;;;16.70;99.90;;;;;;5036196;28;20036;-76
2021/07/18 03:31:23;;;;;;;9.18;4.00;;;16.70;99.90;;;;;;5017167;28;20021;-77
2021/07/18 03:33:49;;;;;;;10.30;3.75;;;16.60;99.90;;;;;;5034975;28;20625;-77
2021/07/18 03:36:14;;;;;;;9.05;4.25;;;16.70;99.90;;;;;;5032678;28;20049;-77
2021/07/18 03:38:40;;;;;;;15.00;4.63;;;16.60;99.90;;;;;;5034301;28;20489;-76
2021/07/18 03:41:06;;;;;;;7.22;3.58;;;16.60;99.90;;;;;;5033453;28;20033;-76
2021/07/18 03:43:32;;;;;;;9.73;4.15;;;16.60;99.90;;;;;;5033625;28;20063;-76
2021/07/18 03:45:57;;;;;;;14.60;4.40;;;16.60;99.90;;;;;;5016933;28;20028;-77
2021/07/18 03:48:23;;;;;;;8.45;3.92;;;16.50;99.90;;;;;;5033896;28;20034;-77
2021/07/18 03:50:49;;;;;;;10.90;4.20;;;16.50;99.90;;;;;;5034315;28;20084;-77
2021/07/18 03:53:16;;;;;;;7.18;3.50;;;16.50;99.90;;;;;;5033628;28;20029;-77
2021/07/18 03:55:42;;;;;;;7.95;4.00;;;16.40;99.90;;;;;;5034771;28;20104;-77
2021/07/18 03:58:08;;;;;;;13.05;3.80;;;16.40;99.90;;;;;;5034147;28;20103;-77
2021/07/18 04:00:33;;;;;;;8.65;3.65;;;16.40;99.90;;;;;;5029414;28;20125;-77
2021/07/18 04:02:59;;;;;;;8.40;3.88;;;16.40;99.90;;;;;;5030060;28;20065;-76
2021/07/18 04:05:25;;;;;;;7.38;3.60;;;16.40;99.90;;;;;;5013177;28;20026;-79
2021/07/18 04:07:51;;;;;;;9.50;3.78;;;16.40;99.90;;;;;;4994502;28;20029;-76
2021/07/18 04:10:16;;;;;;;7.95;3.33;;;16.30;99.90;;;;;;5023908;28;20030;-76
2021/07/18 04:12:42;;;;;;;6.43;3.08;;;16.40;99.90;;;;;;5030136;28;20398;-77
2021/07/18 04:15:08;;;;;;;8.23;3.38;;;16.40;99.90;;;;;;5046485;28;20053;-77
2021/07/18 04:17:34;;;;;;;5.97;3.15;;;16.40;99.90;;;;;;5012227;28;20418;-76
2021/07/18 04:20:00;;;;;;;6.82;3.35;;;16.40;99.90;;;;;;5031292;28;20031;-77
2021/07/18 04:22:25;;;;;;;8.23;3.22;;;16.40;99.90;;;;;;5038632;28;20488;-76
2021/07/18 04:24:51;;;;;;;7.47;3.00;;;16.40;99.90;;;;;;5036327;28;20021;-76
2021/07/18 04:27:16;;;;;;;6.32;3.08;;;16.40;99.90;;;;;;5037279;28;20021;-77
2021/07/18 04:29:42;;;;;;;6.43;3.17;;;16.40;99.90;;;;;;5037552;28;20083;-77
2021/07/18 04:32:09;;;;;;;5.90;3.25;;;16.40;99.90;;;;;;5037390;28;20470;-77
2021/07/18 04:34:34;;;;;;;5.90;3.05;;;16.40;99.90;;;;;;5018315;28;20382;-77
2021/07/18 04:37:00;;;;;;;9.68;3.63;;;16.50;99.90;;;;;;5038043;28;20033;-76
2021/07/18 04:39:27;;;;;;;6.53;3.28;;;16.60;99.90;;;;;;5038617;28;20501;-77
2021/07/18 04:41:52;;;;;;;5.13;2.72;;;16.60;99.90;;;;;;5039419;28;20049;-76
2021/07/18 04:44:18;;;;;;;6.22;2.38;;;16.60;99.90;;;;;;5035320;28;20075;-76
2021/07/18 04:46:44;;;;;;;8.27;2.72;;;16.70;99.90;;;;;;5034731;28;20386;-76
2021/07/18 04:49:09;;;;;;;7.30;2.40;;;16.70;99.90;;;;;;5016458;28;20029;-76
2021/07/18 04:51:35;;;;;;;6.25;2.40;;;16.70;99.90;;;;;;5034069;28;20037;-76
2021/07/18 04:54:01;;;;;;;8.35;2.28;;;16.80;99.90;;;;;;5032819;28;20053;-77
2021/07/18 04:56:26;;;;;;;6.00;2.05;;;16.90;99.90;;;;;;5033474;28;20028;-77
2021/07/18 04:58:52;;;;;;;7.65;2.20;;;16.90;99.90;;;;;;5032200;28;20025;-76
2021/07/18 05:01:17;;;;;;;5.88;1.98;;;17.00;99.90;;;;;;5033816;28;20057;-77
2021/07/18 05:03:43;;;;;;;5.40;2.10;;;17.10;99.90;;;;;;5031209;28;20025;-77
2021/07/18 05:06:09;;;;;;;5.25;2.17;;;17.10;99.90;;;;;;5015160;28;20025;-77
2021/07/18 05:08:34;;;;;;;7.15;2.25;;;17.20;99.90;;;;;;5032125;28;20022;-76
2021/07/18 05:11:01;;;;;;;4.40;2.35;;;17.20;99.90;;;;;;5014455;28;20029;-76
2021/07/18 05:13:27;;;;;;;6.82;1.80;;;17.30;99.90;;;;;;5031892;28;20034;-76
2021/07/18 05:15:53;;;;;;;4.72;1.98;;;17.40;99.90;;;;;;5031266;28;20068;-76
2021/07/18 05:18:19;;;;;;;4.57;2.20;;;17.40;99.90;;;;;;5028850;28;20489;-76
2021/07/18 05:20:44;;;;;;;5.15;1.77;;;17.40;99.90;;;;;;5029260;28;20069;-75
2021/07/18 05:23:11;;;;;;;5.13;2.15;;;17.50;99.90;;;;;;5029931;28;20029;-76
2021/07/18 05:25:37;;;;;;;3.97;2.15;;;17.50;99.90;;;;;;5013329;28;20033;-76
2021/07/18 05:28:04;;;;;;;5.15;2.00;;;17.50;99.90;;;;;;5031823;28;20029;-76
2021/07/18 05:30:30;;;;;;;6.68;2.40;;;17.50;99.90;;;;;;5031908;28;20124;-77
2021/07/18 05:32:55;;;;;;;5.18;1.83;;;17.50;99.90;;;;;;5031900;28;20022;-77
2021/07/18 05:35:21;;;;;;;4.97;2.25;;;17.50;99.90;;;;;;5031890;28;20034;-76
2021/07/18 05:37:47;;;;;;;5.93;1.80;;;17.60;99.90;;;;;;5030629;28;20056;-76
2021/07/18 05:40:12;;;;;;;6.25;1.75;;;17.60;99.90;;;;;;5027272;28;20032;-77
2021/07/18 05:42:38;;;;;;;5.13;1.70;;;17.60;99.90;;;;;;5033574;28;20148;-77
2021/07/18 05:45:06;;;;;;;6.55;1.80;;;17.60;99.90;;;;;;5031220;28;20021;-77
2021/07/18 05:47:33;;;;;;;6.80;1.70;;;17.70;99.90;;;;;;5026911;28;20096;-77
2021/07/18 05:50:00;;;;;;;7.85;1.83;;;17.80;99.90;;;;;;5011993;28;20026;-77
2021/07/18 05:52:26;;;;;;;4.57;1.52;;;17.90;99.90;;;;;;4994334;28;20022;-77
2021/07/18 05:54:52;;;;;;;4.32;1.48;;;17.90;99.90;;;;;;5010556;28;20426;-77
2021/07/18 05:57:19;;;;;;;6.78;1.60;;;18.00;99.90;;;;;;5021877;28;20393;-76
2021/07/18 05:59:45;;;;;;;4.00;1.60;;;18.00;99.90;;;;;;5029844;28;20052;-77
2021/07/18 06:02:11;;;;;;;5.32;1.90;;;18.10;99.90;;;;;;5030140;28;20474;-77
2021/07/18 06:04:36;;;;;;;3.45;1.52;;;18.00;99.90;;;;;;5032169;28;20104;-77
2021/07/18 06:07:02;;;;;;;4.43;1.65;;;18.10;99.90;;;;;;5034731;28;20113;-77
2021/07/18 06:09:28;;;;;;;4.38;1.60;;;18.10;99.90;;;;;;5034934;28;20474;-77
2021/07/18 06:11:53;;;;;;;3.30;1.60;;;18.10;99.90;;;;;;5002370;28;20044;-76
2021/07/18 06:14:19;;;;;;;3.80;1.60;;;18.20;99.90;;;;;;5015291;28;20026;-77
2021/07/18 06:16:45;;;;;;;4.72;1.77;;;18.20;99.90;;;;;;5015310;28;20065;-76
2021/07/18 06:19:10;;;;;;;3.53;1.20;;;18.40;99.90;;;;;;5019064;28;20064;-76
2021/07/18 06:21:36;;;;;;;3.95;1.40;;;18.40;99.90;;;;;;5035021;28;20045;-76
2021/07/18 06:24:02;;;;;;;4.28;1.35;;;18.50;99.90;;;;;;5035179;28;20018;-76
2021/07/18 06:26:28;;;;;;;3.00;1.30;;;18.60;99.90;;;;;;5035263;28;20025;-77
2021/07/18 06:28:54;;;;;;;4.07;1.50;;;18.60;99.90;;;;;;5033834;28;20122;-77
2021/07/18 06:31:19;;;;;;;4.45;1.02;;;18.70;99.90;;;;;;5034735;28;20025;-76
2021/07/18 06:33:45;;;;;;;3.80;1.20;;;18.80;99.90;;;;;;5034904;28;20053;-76
2021/07/18 06:36:12;;;;;;;3.13;1.10;;;18.80;99.90;;;;;;5034144;28;20041;-76
2021/07/18 06:38:39;;;;;;;4.00;1.20;;;18.90;99.90;;;;;;5031307;28;20037;-77
2021/07/18 06:41:05;;;;;;;7.38;1.35;;;18.90;99.90;;;;;;5015377;28;20043;-76
2021/07/18 06:43:31;;;;;;;3.58;1.10;;;18.90;99.90;;;;;;5034608;28;20033;-77
2021/07/18 06:45:57;;;;;;;3.80;1.17;;;19.00;99.90;;;;;;5032358;28;20075;-76
2021/07/18 06:48:22;;;;;;;5.53;1.00;;;19.10;99.90;;;;;;5033454;28;20030;-76
2021/07/18 06:50:48;;;;;;;6.80;1.50;;;19.10;99.90;;;;;;5032798;28;20112;-77
2021/07/18 06:53:14;;;;;;;3.85;1.30;;;19.10;99.90;;;;;;5024594;28;20104;-77
2021/07/18 06:55:39;;;;;;;5.68;1.08;;;19.30;99.90;;;;;;5033045;28;20025;-77
2021/07/18 06:58:05;;;;;;;3.00;1.00;;;19.30;99.90;;;;;;5031311;28;20025;-76
2021/07/18 07:00:31;;;;;;;6.25;1.13;;;19.30;99.90;;;;;;5025878;28;20179;-76
2021/07/18 07:02:56;;;;;;;5.10;1.42;;;19.40;99.90;;;;;;5030205;28;20052;-77
2021/07/18 07:05:22;;;;;;;3.92;1.10;;;19.50;99.90;;;;;;5031607;28;20470;-77
2021/07/18 07:07:51;;;;;;;5.38;1.17;;;19.60;99.90;;;;;;5032441;28;20809;-77
2021/07/18 07:10:18;;;;;;;4.22;1.17;;;19.60;99.90;;;;;;5032019;28;20030;-76
2021/07/18 07:12:45;;;;;;;3.83;1.20;;;19.80;99.90;;;;;;5017698;28;20033;-76
2021/07/18 07:15:11;;;;;;;2.95;1.20;;;19.80;99.90;;;;;;5032789;28;20017;-77
2021/07/18 07:17:37;;;;;;;4.82;1.27;;;19.80;99.90;;;;;;5013465;28;20026;-75
2021/07/18 07:20:13;;;;;;;7.78;1.55;;;19.90;99.90;;;;;;5029675;28;20029;-76
2021/07/18 07:22:39;;;;;;;4.60;1.48;;;19.80;99.90;;;;;;5012402;28;20064;-77
2021/07/18 07:25:07;;;;;;;3.65;1.48;;;19.90;99.90;;;;;;5032240;28;20435;-77
2021/07/18 07:27:33;;;;;;;6.75;1.50;;;19.90;99.90;;;;;;5023358;28;20037;-77
2021/07/18 07:29:58;;;;;;;6.72;1.33;;;20.00;99.90;;;;;;5030536;28;20025;-77
2021/07/18 07:32:24;;;;;;;4.50;1.33;;;20.10;99.90;;;;;;5017880;28;20120;-77
2021/07/18 07:34:50;;;;;;;3.72;1.50;;;20.10;99.90;;;;;;5031443;28;20030;-76
2021/07/18 07:37:15;;;;;;;2.88;1.20;;;20.20;99.90;;;;;;5030419;28;20124;-78
2021/07/18 07:39:41;;;;;;;4.53;1.63;;;20.30;99.90;;;;;;5013105;28;20021;-76
2021/07/18 07:42:08;;;;;;;5.05;1.50;;;20.30;99.90;;;;;;5031734;28;20030;-77
2021/07/18 07:44:34;;;;;;;3.40;1.27;;;20.40;99.90;;;;;;5014271;28;20017;-77
2021/07/18 07:47:00;;;;;;;5.82;1.33;;;20.50;99.90;;;;;;5032580;28;20104;-77
2021/07/18 07:49:26;;;;;;;5.65;1.52;;;20.60;99.90;;;;;;5021605;28;20450;-77
2021/07/18 07:51:51;;;;;;;4.80;1.10;;;20.70;99.90;;;;;;5032042;28;20021;-77
2021/07/18 07:54:17;;;;;;;4.30;1.50;;;20.70;99.90;;;;;;5031479;28;20021;-77
2021/07/18 07:56:43;;;;;;;5.03;1.30;;;20.80;99.90;;;;;;5013602;28;20109;-76
2021/07/18 07:59:08;;;;;;;6.57;1.50;;;20.90;99.90;;;;;;5031707;28;20347;-77
2021/07/18 08:01:34;;;;;;;6.22;1.52;;;20.90;99.90;;;;;;5031858;28;20135;-77
2021/07/18 08:04:00;;;;;;;6.22;1.70;;;21.00;99.90;;;;;;5020760;28;20036;-76
2021/07/18 08:06:25;;;;;;;6.40;1.83;;;21.10;99.90;;;;;;5029314;28;20037;-76
2021/07/18 08:08:51;;;;;;;6.43;1.35;;;21.10;99.90;;;;;;5012306;28;20037;-77
2021/07/18 08:11:17;;;;;;;3.55;1.33;;;21.20;99.90;;;;;;5030335;28;20032;-76
2021/07/18 08:13:43;;;;;;;6.88;1.70;;;21.30;99.90;;;;;;5070562;22;20420;-77
2021/07/18 08:16:08;;;;;;;3.33;1.45;;;21.40;99.90;;;;;;5049176;28;20029;-76
2021/07/18 08:18:35;;;;;;;5.78;1.60;;;21.50;99.90;;;;;;5068171;28;20040;-76
2021/07/18 08:21:01;;;;;;;10.40;2.00;;;21.70;99.90;;;;;;5067332;28;20063;-76
2021/07/18 08:23:28;;;;;;;4.65;1.63;;;21.90;99.90;;;;;;5052617;28;20025;-76
2021/07/18 08:25:54;;;;;;;5.57;1.48;;;21.80;99.90;;;;;;5068526;28;20078;-76
2021/07/18 08:28:24;;;;;;;5.20;1.52;;;21.90;99.90;;;;;;5065143;28;20389;-76
2021/07/18 08:30:52;;;;;;;6.85;1.60;;;21.90;99.90;;;;;;5065951;28;20024;-74
2021/07/18 08:33:18;;;;;;;4.60;1.52;;;22.00;99.90;;;;;;5068629;28;20052;-76
2021/07/18 08:35:44;;;;;;;6.10;1.70;;;21.80;99.90;;;;;;5068983;28;20055;-76
2021/07/18 08:38:10;;;;;;;9.00;1.77;;;21.70;99.90;;;;;;5065431;28;20028;-76
2021/07/18 08:40:37;;;;;;;4.45;1.70;;;21.90;99.90;;;;;;5067605;28;20500;-76
2021/07/18 08:43:05;;;;;;;5.60;1.52;;;21.90;99.90;;;;;;5068154;28;20434;-76
2021/07/18 08:45:31;;;;;;;4.82;1.90;;;22.20;99.90;;;;;;5068083;28;20017;-76
2021/07/18 08:47:57;;;;;;;5.93;1.58;;;22.20;99.90;;;;;;5063582;28;20062;-76
2021/07/18 08:50:24;;;;;;;7.32;1.73;;;22.20;99.90;;;;;;5068449;28;20573;-81
2021/07/18 08:52:52;;;;;;;5.00;1.42;;;22.40;99.90;;;;;;5066524;28;21193;-81
2021/07/18 08:55:19;;;;;;;5.30;1.58;;;22.30;99.90;;;;;;5060379;28;20021;-81
2021/07/18 08:57:45;;;;;;;4.95;1.83;;;22.50;99.90;;;;;;5069853;28;20063;-81
2021/07/18 09:00:13;;;;;;;9.60;1.50;;;22.50;99.90;;;;;;5063816;28;20155;-81
2021/07/18 09:02:39;;;;;;;5.13;2.08;;;22.70;99.90;;;;;;5083836;28;20024;-81
2021/07/18 09:05:05;;;;;;;5.03;1.75;;;22.70;99.90;;;;;;5072926;28;20031;-82
2021/07/18 09:07:45;;;;;;;6.38;1.75;;;22.90;99.90;;;;;;5063069;28;20508;-81
2021/07/18 09:10:12;;;;;;;3.30;1.30;;;22.80;99.90;;;;;;5062959;28;20044;-82
2021/07/18 09:12:38;;;;;;;5.75;1.70;;;22.90;99.90;;;;;;5061129;28;20036;-81
2021/07/18 09:15:05;;;;;;;5.13;1.92;;;22.80;99.90;;;;;;5068538;28;20031;-81
2021/07/18 09:17:36;;;;;;;7.18;1.70;;;22.90;99.90;;;;;;5070230;28;20024;-82
2021/07/18 09:20:17;;;;;;;6.90;1.67;;;22.90;99.90;;;;;;5068967;28;20362;-83
2021/07/18 09:22:43;;;;;;;;;;;23.00;99.90;;;;;;5059970;28;20032;-81
2021/07/18 09:25:09;;;;;;;6.03;1.70;;;22.90;99.90;;;;;;5067532;28;19914;-82
2021/07/18 09:27:35;;;;;;;6.70;1.50;;;23.20;99.90;;;;;;5060262;28;20620;-81
2021/07/18 09:30:06;;;;;;;4.13;1.70;;;23.20;99.90;;;;;;5072620;28;20040;-81
2021/07/18 09:32:36;;;;;;;5.03;1.77;;;23.30;99.90;;;;;;5065211;28;20029;-83
2021/07/18 09:35:08;;;;;;;3.45;1.30;;;23.30;99.90;;;;;;5052912;28;20263;-82
2021/07/18 09:37:43;;;;;;;4.88;1.42;;;23.40;99.90;;;;;;5055791;28;20039;-82
2021/07/18 09:40:10;;;;;;;5.22;2.08;;;23.60;99.90;;;;;;5074033;28;20020;-83
2021/07/18 09:42:36;;;;;;;5.13;1.50;;;23.50;99.90;;;;;;5058269;28;20025;-82
2021/07/18 09:45:05;;;;;;;4.30;1.50;;;23.60;99.90;;;;;;5058875;28;20504;-82
2021/07/18 09:47:31;;;;;;;3.13;1.42;;;23.70;99.90;;;;;;5058214;28;20471;-83
2021/07/18 09:49:56;;;;;;;6.55;1.48;;;23.80;99.90;;;;;;5056949;28;20051;-83
2021/07/18 09:52:27;;;;;;;5.70;1.55;;;23.90;99.90;;;;;;5057437;28;20043;-82
2021/07/18 09:54:56;;;;;;;7.35;1.35;;;24.10;99.90;;;;;;5057493;28;20052;-81
2021/07/18 09:57:36;;;;;;;5.53;1.80;;;24.30;99.90;;;;;;5058321;28;20056;-80
2021/07/18 10:00:05;;;;;;;3.80;1.50;;;24.50;99.90;;;;;;5078195;28;20028;-81
2021/07/18 10:02:32;;;;;;;6.72;1.40;;;24.50;99.90;;;;;;5078022;28;20149;-83
2021/07/18 10:04:58;;;;;;;4.20;1.50;;;24.30;99.90;;;;;;5078590;28;20020;-82
2021/07/18 10:07:32;;;;;;;5.28;1.70;;;24.50;99.90;;;;;;5072731;28;20070;-83
2021/07/18 10:09:59;;;;;;;3.33;1.27;;;24.70;99.90;;;;;;5057598;28;20036;-82
2021/07/18 10:12:25;;;;;;;5.35;1.63;;;24.80;99.90;;;;;;5058163;28;20041;-83
2021/07/18 10:14:52;;;;;;;4.45;1.40;;;25.10;99.90;;;;;;5073085;28;20082;-83
2021/07/18 10:17:18;;;;;;;4.78;1.38;;;25.00;99.90;;;;;;5058634;28;20029;-81
2021/07/18 10:19:44;;;;;;;5.47;1.45;;;25.10;99.90;;;;;;5056671;28;20087;-83
2021/07/18 10:22:10;;;;;;;4.20;1.70;;;25.10;99.90;;;;;;5066036;28;20033;-83
2021/07/18 10:24:37;;;;;;;6.68;1.50;;;25.20;99.90;;;;;;5072938;28;20021;-83
2021/07/18 10:27:04;;;;;;;5.32;1.63;;;25.30;99.90;;;;;;5057729;28;20033;-81
2021/07/18 10:29:31;;;;;;;4.90;1.50;;;25.40;99.90;;;;;;5066485;28;20021;-82
2021/07/18 10:32:03;;;;;;;3.30;1.40;;;25.40;99.90;;;;;;5067360;28;20029;-82
2021/07/18 10:34:30;;;;;;;5.45;1.83;;;25.30;99.90;;;;;;5059134;28;20029;-82
2021/07/18 10:36:56;;;;;;;6.65;1.70;;;25.40;99.90;;;;;;5057489;28;20094;-82
2021/07/18 10:39:28;;;;;;;5.40;1.48;;;25.40;99.90;;;;;;5058470;28;20116;-83
2021/07/18 10:41:55;;;;;;;4.90;1.40;;;25.70;99.90;;;;;;5058119;28;20021;-82
2021/07/18 10:44:21;;;;;;;5.57;1.60;;;25.70;99.90;;;;;;5060915;28;20393;-83
2021/07/18 10:46:46;;;;;;;5.72;1.50;;;25.80;99.90;;;;;;5059957;28;20507;-83
2021/07/18 10:49:16;;;;;;;4.60;1.50;;;25.90;99.90;;;;;;5057536;28;20025;-83
2021/07/18 10:51:53;;;;;;;4.43;1.58;;;26.20;99.90;;;;;;5057498;28;20071;-82
2021/07/18 10:54:21;;;;;;;5.82;1.50;;;26.10;99.90;;;;;;5062149;28;20024;-82
2021/07/18 10:56:54;;;;;;;4.72;1.65;;;26.40;99.90;;;;;;5063580;28;20044;-83
2021/07/18 10:59:43;;;;;;;3.90;1.35;;;26.40;99.90;;;;;;5057220;28;20025;-82
2021/07/18 11:02:14;;;;;;;4.35;1.75;;;26.30;99.90;;;;;;5060282;28;20024;-83
2021/07/18 11:04:52;;;;;;;9.77;1.50;;;26.50;99.90;;;;;;5057450;28;20055;-82
2021/07/18 11:07:20;;;;;;;3.63;1.50;;;26.50;99.70;;;;;;5059346;28;20029;-81
2021/07/18 11:09:48;;;;;;;4.55;1.65;;;26.30;99.70;;;;;;5056920;28;20029;-80
2021/07/18 11:12:37;;;;;;;5.45;1.27;;;26.30;99.70;;;;;;5055476;28;20496;-81
2021/07/18 11:15:15;;;;;;;4.25;1.33;;;26.30;99.50;;;;;;5058198;28;20507;-82
2021/07/18 11:17:58;;;;;;;7.13;1.38;;;26.50;99.30;;;;;;5067482;28;20028;-82
2021/07/18 11:20:44;;;;;;;5.82;1.40;;;26.50;98.70;;;;;;5056003;28;20375;-81
2021/07/18 11:23:43;;;;;;;5.45;1.70;;;26.70;99.00;;;;;;5058608;28;20028;-82
2021/07/18 11:26:19;;;;;;;6.68;1.40;;;26.30;99.00;;;;;;5051602;28;20033;-82
2021/07/18 11:31:12;;;;;;;7.10;1.52;;;26.50;98.60;;;;;;5062840;28;20086;-82
2021/07/18 11:33:41;;;;;;;6.93;1.35;;;26.50;98.90;;;;;;5062639;28;20727;-82
2021/07/18 11:36:07;;;;;;;7.10;1.50;;;26.60;99.10;;;;;;5066066;28;20029;-82
2021/07/18 11:38:33;;;;;;;5.35;1.73;;;26.70;98.80;;;;;;5060247;28;20040;-81
2021/07/18 11:40:59;;;;;;;7.25;1.50;;;26.60;98.10;;;;;;5054489;28;20016;-82
2021/07/18 11:43:25;;;;;;;6.53;1.58;;;26.60;97.90;;;;;;5056268;28;20101;-82
2021/07/18 11:45:54;;;;;;;4.30;1.35;;;26.80;98.50;;;;;;5057996;28;20034;-82
2021/07/18 11:48:22;;;;;;;5.15;1.45;;;26.90;98.10;;;;;;5059140;28;20032;-82
2021/07/18 11:50:49;;;;;;;4.03;1.20;;;27.10;97.50;;;;;;5060868;28;20088;-82
2021/07/18 11:53:18;;;;;;;5.55;1.67;;;27.30;97.20;;;;;;5065765;28;20577;-82
2021/07/18 11:55:45;;;;;;;4.80;2.30;;;27.30;96.90;;;;;;5063565;28;20455;-82
2021/07/18 11:58:11;;;;;;;5.75;1.25;;;27.60;97.20;;;;;;5072654;28;20492;-81
2021/07/18 12:01:00;;;;;;;4.28;1.40;;;27.70;95.90;;;;;;5071245;28;20072;-82
2021/07/18 12:03:26;;;;;;;4.60;1.58;;;27.50;95.80;;;;;;5058208;28;20033;-82
2021/07/18 12:05:54;;;;;;;5.18;1.67;;;27.60;97.00;;;;;;5071098;28;20051;-82
2021/07/18 12:08:20;;;;;;;5.63;1.50;;;27.70;95.60;;;;;;5070896;28;20024;-82
2021/07/18 12:11:01;;;;;;;4.07;1.60;;;27.80;96.20;;;;;;5073132;28;20042;-82
2021/07/18 12:13:37;;;;;;;4.82;1.58;;;28.10;95.40;;;;;;5071141;28;20067;-82
2021/07/18 12:16:05;;;;;;;4.35;1.88;;;28.20;94.70;;;;;;5075293;28;20029;-82
2021/07/18 12:18:31;;;;;;;3.88;1.63;;;28.10;94.20;;;;;;5074365;28;20442;-82
2021/07/18 12:21:25;;;;;;;6.28;1.85;;;28.20;94.30;;;;;;5070812;28;20104;-82
2021/07/18 12:24:21;;;;;;;5.45;1.65;;;28.00;93.80;;;;;;5072747;28;20067;-83
2021/07/18 12:27:09;;;;;;;6.50;2.00;;;28.30;93.80;;;;;;5074814;28;20080;-83
2021/07/18 12:29:42;;;;;;;3.30;1.80;;;28.30;93.10;;;;;;5069065;28;20032;-82
2021/07/18 12:32:09;;;;;;;5.88;2.60;;;28.60;92.90;;;;;;5076335;28;20024;-82
2021/07/18 12:34:40;;;;;;;5.20;2.67;;;28.40;92.20;;;;;;5077043;28;20032;-82
2021/07/18 12:37:19;;;;;;;5.90;2.72;;;28.40;93.20;;;;;;5084659;28;20036;-81
2021/07/18 12:39:51;;;;;;;5.75;2.95;;;28.40;93.10;;;;;;5079465;28;20031;-82
2021/07/18 12:42:25;;;;;;;;;;;28.30;93.00;;;;;;5076825;28;20135;-82
2021/07/18 12:45:03;;;;;;;9.23;3.55;;;28.10;92.60;;;;;;5078741;28;19916;-81
2021/07/18 12:47:48;;;;;;;7.47;3.80;;;28.20;92.90;;;;;;5076801;28;20045;-82
2021/07/18 12:50:25;;;;;;;8.30;4.22;;;28.60;92.60;;;;;;5076341;28;20028;-82
2021/07/18 12:52:56;;;;;;;7.00;4.28;;;28.70;92.50;;;;;;5073943;28;20082;-82